sensor_id;sensor_type;location;lat;lon;timestamp;P1;durP1;ratioP1;P2;durP2;ratioP2
56343;SDS011;42245;42.058;24.700;2023-07-31T00:01:18;7.60;;;4.28;;
56343;SDS011;42245;42.058;24.700;2023-07-31T00:03:45;8.38;;;4.40;;
56343;SDS011;42245;42.058;24.700;2023-07-31T00:06:11;14.40;;;4.65;;
56343;SDS011;42245;42.058;24.700;2023-07-31T00:08:36;8.75;;;4.35;;
56343;SDS011;42245;42.058;24.700;2023-07-31T00:11:01;8.80;;;4.57;;
56343;SDS011;42245;42.058;24.700;2023-07-31T00:13:27;7.95;;;4.45;;
56343;SDS011;42245;42.058;24.700;2023-07-31T00:15:52;10.27;;;4.75;;
56343;SDS011;42245;42.058;24.700;2023-07-31T00:18:18;7.00;;;4.28;;
56343;SDS011;42245;42.058;24.700;2023-07-31T00:20:43;6.38;;;4.57;;
56343;SDS011;42245;42.058;24.700;2023-07-31T00:23:09;6.82;;;4.20;;
56343;SDS011;42245;42.058;24.700;2023-07-31T00:25:34;8.30;;;3.85;;
56343;SDS011;42245;42.058;24.700;2023-07-31T00:28:00;8.05;;;3.90;;
56343;SDS011;42245;42.058;24.700;2023-07-31T00:30:25;11.77;;;4.10;;
56343;SDS011;42245;42.058;24.700;2023-07-31T00:32:52;4.15;;;3.28;;
56343;SDS011;42245;42.058;24.700;2023-07-31T00:35:17;6.50;;;3.40;;
56343;SDS011;42245;42.058;24.700;2023-07-31T00:37:43;6.78;;;3.70;;
56343;SDS011;42245;42.058;24.700;2023-07-31T00:40:08;6.10;;;3.65;;
56343;SDS011;42245;42.058;24.700;2023-07-31T00:42:34;7.53;;;3.70;;
56343;SDS011;42245;42.058;24.700;2023-07-31T00:44:59;6.05;;;3.67;;
56343;SDS011;42245;42.058;24.700;2023-07-31T00:47:25;5.28;;;3.58;;
56343;SDS011;42245;42.058;24.700;2023-07-31T00:49:51;7.03;;;3.58;;
56343;SDS011;42245;42.058;24.700;2023-07-31T00:52:16;5.10;;;3.22;;
56343;SDS011;42245;42.058;24.700;2023-07-31T00:54:42;6.80;;;3.20;;
56343;SDS011;42245;42.058;24.700;2023-07-31T00:57:08;5.07;;;2.95;;
56343;SDS011;42245;42.058;24.700;2023-07-31T00:59:34;5.05;;;3.10;;
56343;SDS011;42245;42.058;24.700;2023-07-31T01:01:59;6.82;;;3.00;;
56343;SDS011;42245;42.058;24.700;2023-07-31T01:04:25;5.53;;;3.65;;
56343;SDS011;42245;42.058;24.700;2023-07-31T01:06:56;6.13;;;3.17;;
56343;SDS011;42245;42.058;24.700;2023-07-31T01:12:15;4.22;;;3.00;;
56343;SDS011;42245;42.058;24.700;2023-07-31T01:14:50;6.40;;;3.00;;
56343;SDS011;42245;42.058;24.700;2023-07-31T01:17:17;4.03;;;2.92;;
56343;SDS011;42245;42.058;24.700;2023-07-31T01:19:42;3.60;;;3.20;;
56343;SDS011;42245;42.058;24.700;2023-07-31T01:27:25;5.53;;;2.88;;
56343;SDS011;42245;42.058;24.700;2023-07-31T01:32:50;5.88;;;2.80;;
56343;SDS011;42245;42.058;24.700;2023-07-31T01:35:16;9.77;;;3.55;;
56343;SDS011;42245;42.058;24.700;2023-07-31T01:37:42;7.50;;;3.38;;
56343;SDS011;42245;42.058;24.700;2023-07-31T01:40:07;3.95;;;2.67;;
56343;SDS011;42245;42.058;24.700;2023-07-31T01:42:33;9.05;;;3.00;;
56343;SDS011;42245;42.058;24.700;2023-07-31T01:44:58;6.47;;;3.00;;
56343;SDS011;42245;42.058;24.700;2023-07-31T01:47:24;6.32;;;2.78;;
56343;SDS011;42245;42.058;24.700;2023-07-31T01:49:49;8.18;;;3.03;;
56343;SDS011;42245;42.058;24.700;2023-07-31T01:52:15;8.27;;;2.67;;
56343;SDS011;42245;42.058;24.700;2023-07-31T01:54:40;5.10;;;2.60;;
56343;SDS011;42245;42.058;24.700;2023-07-31T01:57:06;7.72;;;2.67;;
56343;SDS011;42245;42.058;24.700;2023-07-31T01:59:31;5.53;;;2.45;;
56343;SDS011;42245;42.058;24.700;2023-07-31T02:01:57;7.70;;;2.60;;
56343;SDS011;42245;42.058;24.700;2023-07-31T02:04:22;5.00;;;2.55;;
56343;SDS011;42245;42.058;24.700;2023-07-31T02:06:48;5.63;;;2.55;;
56343;SDS011;42245;42.058;24.700;2023-07-31T02:09:13;4.03;;;2.38;;
56343;SDS011;42245;42.058;24.700;2023-07-31T02:11:39;3.25;;;2.50;;
56343;SDS011;42245;42.058;24.700;2023-07-31T02:14:04;7.05;;;2.45;;
56343;SDS011;42245;42.058;24.700;2023-07-31T02:16:30;3.80;;;2.30;;
56343;SDS011;42245;42.058;24.700;2023-07-31T02:18:55;3.63;;;2.33;;
56343;SDS011;42245;42.058;24.700;2023-07-31T02:21:20;4.45;;;2.55;;
56343;SDS011;42245;42.058;24.700;2023-07-31T02:23:46;5.53;;;2.35;;
56343;SDS011;42245;42.058;24.700;2023-07-31T02:26:11;5.50;;;2.58;;
56343;SDS011;42245;42.058;24.700;2023-07-31T02:28:37;7.90;;;3.13;;
56343;SDS011;42245;42.058;24.700;2023-07-31T02:31:02;4.60;;;3.33;;
56343;SDS011;42245;42.058;24.700;2023-07-31T02:33:28;7.85;;;3.95;;
56343;SDS011;42245;42.058;24.700;2023-07-31T02:35:53;4.20;;;3.20;;
56343;SDS011;42245;42.058;24.700;2023-07-31T02:38:19;3.83;;;3.30;;
56343;SDS011;42245;42.058;24.700;2023-07-31T02:40:44;4.45;;;3.30;;
56343;SDS011;42245;42.058;24.700;2023-07-31T02:43:10;4.40;;;3.42;;
56343;SDS011;42245;42.058;24.700;2023-07-31T02:45:35;4.70;;;3.95;;
56343;SDS011;42245;42.058;24.700;2023-07-31T02:48:01;4.97;;;3.88;;
56343;SDS011;42245;42.058;24.700;2023-07-31T02:50:26;5.45;;;3.63;;
56343;SDS011;42245;42.058;24.700;2023-07-31T02:52:53;4.65;;;3.72;;
56343;SDS011;42245;42.058;24.700;2023-07-31T02:55:19;5.68;;;3.58;;
56343;SDS011;42245;42.058;24.700;2023-07-31T02:57:44;4.85;;;3.72;;
56343;SDS011;42245;42.058;24.700;2023-07-31T03:00:10;4.72;;;4.13;;
56343;SDS011;42245;42.058;24.700;2023-07-31T03:02:35;5.82;;;4.10;;
56343;SDS011;42245;42.058;24.700;2023-07-31T03:05:01;6.43;;;3.90;;
56343;SDS011;42245;42.058;24.700;2023-07-31T03:07:26;5.28;;;4.10;;
56343;SDS011;42245;42.058;24.700;2023-07-31T03:09:53;4.40;;;4.00;;
56343;SDS011;42245;42.058;24.700;2023-07-31T03:12:19;4.55;;;4.15;;
56343;SDS011;42245;42.058;24.700;2023-07-31T03:14:44;12.38;;;4.95;;
56343;SDS011;42245;42.058;24.700;2023-07-31T03:17:10;9.38;;;4.50;;
56343;SDS011;42245;42.058;24.700;2023-07-31T03:19:35;6.50;;;4.30;;
56343;SDS011;42245;42.058;24.700;2023-07-31T03:22:01;5.80;;;4.53;;
56343;SDS011;42245;42.058;24.700;2023-07-31T03:24:27;5.60;;;4.68;;
56343;SDS011;42245;42.058;24.700;2023-07-31T03:26:53;8.13;;;4.68;;
56343;SDS011;42245;42.058;24.700;2023-07-31T03:29:18;7.03;;;4.88;;
56343;SDS011;42245;42.058;24.700;2023-07-31T03:31:44;6.07;;;5.05;;
56343;SDS011;42245;42.058;24.700;2023-07-31T03:34:09;5.88;;;5.28;;
56343;SDS011;42245;42.058;24.700;2023-07-31T03:36:35;7.68;;;5.38;;
56343;SDS011;42245;42.058;24.700;2023-07-31T03:39:00;6.80;;;5.55;;
56343;SDS011;42245;42.058;24.700;2023-07-31T03:41:26;11.35;;;5.30;;
56343;SDS011;42245;42.058;24.700;2023-07-31T03:43:51;8.32;;;5.20;;
56343;SDS011;42245;42.058;24.700;2023-07-31T03:46:17;12.05;;;5.43;;
56343;SDS011;42245;42.058;24.700;2023-07-31T03:48:42;10.73;;;6.13;;
56343;SDS011;42245;42.058;24.700;2023-07-31T03:51:08;11.32;;;5.72;;
56343;SDS011;42245;42.058;24.700;2023-07-31T03:53:33;8.55;;;6.18;;
56343;SDS011;42245;42.058;24.700;2023-07-31T03:55:59;9.32;;;6.22;;
56343;SDS011;42245;42.058;24.700;2023-07-31T03:58:24;8.77;;;6.80;;
56343;SDS011;42245;42.058;24.700;2023-07-31T04:00:50;14.40;;;6.72;;
56343;SDS011;42245;42.058;24.700;2023-07-31T04:03:15;8.98;;;5.95;;
56343;SDS011;42245;42.058;24.700;2023-07-31T04:05:41;9.25;;;5.22;;
56343;SDS011;42245;42.058;24.700;2023-07-31T04:08:07;9.35;;;5.72;;
56343;SDS011;42245;42.058;24.700;2023-07-31T04:10:32;7.43;;;6.22;;
56343;SDS011;42245;42.058;24.700;2023-07-31T04:12:58;7.25;;;5.45;;
56343;SDS011;42245;42.058;24.700;2023-07-31T04:15:25;9.15;;;5.78;;
56343;SDS011;42245;42.058;24.700;2023-07-31T04:17:51;7.53;;;4.90;;
56343;SDS011;42245;42.058;24.700;2023-07-31T04:20:16;6.07;;;5.22;;
56343;SDS011;42245;42.058;24.700;2023-07-31T04:22:42;6.00;;;5.05;;
56343;SDS011;42245;42.058;24.700;2023-07-31T04:25:07;7.15;;;5.70;;
56343;SDS011;42245;42.058;24.700;2023-07-31T04:27:33;10.25;;;5.78;;
56343;SDS011;42245;42.058;24.700;2023-07-31T04:29:58;7.40;;;6.00;;
56343;SDS011;42245;42.058;24.700;2023-07-31T04:32:24;6.90;;;5.43;;
56343;SDS011;42245;42.058;24.700;2023-07-31T04:34:49;6.38;;;5.70;;
56343;SDS011;42245;42.058;24.700;2023-07-31T04:37:15;6.07;;;5.47;;
56343;SDS011;42245;42.058;24.700;2023-07-31T04:39:40;6.10;;;5.25;;
56343;SDS011;42245;42.058;24.700;2023-07-31T04:42:06;6.78;;;5.63;;
56343;SDS011;42245;42.058;24.700;2023-07-31T04:44:31;9.48;;;5.30;;
56343;SDS011;42245;42.058;24.700;2023-07-31T04:46:57;7.00;;;5.88;;
56343;SDS011;42245;42.058;24.700;2023-07-31T04:49:22;6.35;;;5.28;;
56343;SDS011;42245;42.058;24.700;2023-07-31T04:51:47;7.35;;;6.07;;
56343;SDS011;42245;42.058;24.700;2023-07-31T04:54:13;6.35;;;5.75;;
56343;SDS011;42245;42.058;24.700;2023-07-31T04:56:40;7.57;;;5.93;;
56343;SDS011;42245;42.058;24.700;2023-07-31T04:59:06;7.80;;;5.97;;
56343;SDS011;42245;42.058;24.700;2023-07-31T05:01:31;7.93;;;6.00;;
56343;SDS011;42245;42.058;24.700;2023-07-31T05:03:57;6.45;;;5.72;;
56343;SDS011;42245;42.058;24.700;2023-07-31T05:06:22;7.80;;;5.90;;
56343;SDS011;42245;42.058;24.700;2023-07-31T05:08:48;8.27;;;5.80;;
56343;SDS011;42245;42.058;24.700;2023-07-31T05:11:13;9.02;;;5.60;;
56343;SDS011;42245;42.058;24.700;2023-07-31T05:13:39;6.25;;;5.65;;
56343;SDS011;42245;42.058;24.700;2023-07-31T05:16:04;6.07;;;5.47;;
56343;SDS011;42245;42.058;24.700;2023-07-31T05:18:30;6.35;;;5.65;;
56343;SDS011;42245;42.058;24.700;2023-07-31T05:20:55;5.53;;;4.97;;
56343;SDS011;42245;42.058;24.700;2023-07-31T05:23:21;5.95;;;5.35;;
56343;SDS011;42245;42.058;24.700;2023-07-31T05:25:46;5.25;;;4.72;;
56343;SDS011;42245;42.058;24.700;2023-07-31T05:28:12;4.95;;;4.50;;
56343;SDS011;42245;42.058;24.700;2023-07-31T05:30:37;7.65;;;4.60;;
56343;SDS011;42245;42.058;24.700;2023-07-31T05:33:03;5.30;;;4.80;;
56343;SDS011;42245;42.058;24.700;2023-07-31T05:35:28;8.07;;;6.35;;
56343;SDS011;42245;42.058;24.700;2023-07-31T05:37:54;20.23;;;7.05;;
56343;SDS011;42245;42.058;24.700;2023-07-31T05:40:19;7.05;;;6.05;;
56343;SDS011;42245;42.058;24.700;2023-07-31T05:42:45;6.50;;;5.78;;
56343;SDS011;42245;42.058;24.700;2023-07-31T05:45:10;7.63;;;6.38;;
56343;SDS011;42245;42.058;24.700;2023-07-31T05:47:35;7.72;;;6.60;;
56343;SDS011;42245;42.058;24.700;2023-07-31T05:50:01;7.60;;;6.90;;
56343;SDS011;42245;42.058;24.700;2023-07-31T05:52:27;7.88;;;6.60;;
56343;SDS011;42245;42.058;24.700;2023-07-31T05:54:54;7.78;;;6.93;;
56343;SDS011;42245;42.058;24.700;2023-07-31T05:57:19;9.73;;;7.20;;
56343;SDS011;42245;42.058;24.700;2023-07-31T05:59:45;10.10;;;9.10;;
56343;SDS011;42245;42.058;24.700;2023-07-31T06:02:11;11.32;;;8.82;;
56343;SDS011;42245;42.058;24.700;2023-07-31T06:04:36;9.25;;;8.32;;
56343;SDS011;42245;42.058;24.700;2023-07-31T06:07:01;9.35;;;8.35;;
56343;SDS011;42245;42.058;24.700;2023-07-31T06:09:28;9.73;;;8.48;;
56343;SDS011;42245;42.058;24.700;2023-07-31T06:11:53;14.07;;;8.02;;
56343;SDS011;42245;42.058;24.700;2023-07-31T06:14:19;9.52;;;8.60;;
56343;SDS011;42245;42.058;24.700;2023-07-31T06:16:44;9.02;;;7.60;;
56343;SDS011;42245;42.058;24.700;2023-07-31T06:19:10;10.00;;;7.80;;
56343;SDS011;42245;42.058;24.700;2023-07-31T06:21:36;8.25;;;7.45;;
56343;SDS011;42245;42.058;24.700;2023-07-31T06:24:07;8.43;;;7.63;;
56343;SDS011;42245;42.058;24.700;2023-07-31T06:26:33;10.15;;;7.68;;
56343;SDS011;42245;42.058;24.700;2023-07-31T06:28:58;8.70;;;7.88;;
56343;SDS011;42245;42.058;24.700;2023-07-31T06:31:24;9.23;;;7.55;;
56343;SDS011;42245;42.058;24.700;2023-07-31T06:33:50;9.43;;;7.70;;
56343;SDS011;42245;42.058;24.700;2023-07-31T06:36:16;8.45;;;7.60;;
56343;SDS011;42245;42.058;24.700;2023-07-31T06:38:41;9.95;;;8.70;;
56343;SDS011;42245;42.058;24.700;2023-07-31T06:41:07;9.93;;;8.60;;
56343;SDS011;42245;42.058;24.700;2023-07-31T06:43:32;10.13;;;8.43;;
56343;SDS011;42245;42.058;24.700;2023-07-31T06:46:00;9.80;;;8.80;;
56343;SDS011;42245;42.058;24.700;2023-07-31T06:48:29;10.48;;;9.48;;
56343;SDS011;42245;42.058;24.700;2023-07-31T06:50:55;11.70;;;10.13;;
56343;SDS011;42245;42.058;24.700;2023-07-31T06:53:20;12.60;;;9.98;;
56343;SDS011;42245;42.058;24.700;2023-07-31T06:55:46;10.88;;;9.77;;
56343;SDS011;42245;42.058;24.700;2023-07-31T06:58:13;10.85;;;9.85;;
56343;SDS011;42245;42.058;24.700;2023-07-31T07:00:38;10.90;;;9.85;;
56343;SDS011;42245;42.058;24.700;2023-07-31T07:03:04;10.82;;;9.75;;
56343;SDS011;42245;42.058;24.700;2023-07-31T07:05:29;13.27;;;10.00;;
56343;SDS011;42245;42.058;24.700;2023-07-31T07:07:55;11.05;;;9.95;;
56343;SDS011;42245;42.058;24.700;2023-07-31T07:10:20;15.63;;;11.52;;
56343;SDS011;42245;42.058;24.700;2023-07-31T07:12:46;12.98;;;11.38;;
56343;SDS011;42245;42.058;24.700;2023-07-31T07:15:11;12.65;;;11.00;;
56343;SDS011;42245;42.058;24.700;2023-07-31T07:17:36;35.08;;;11.13;;
56343;SDS011;42245;42.058;24.700;2023-07-31T07:20:02;18.55;;;10.98;;
56343;SDS011;42245;42.058;24.700;2023-07-31T07:22:28;19.40;;;10.73;;
56343;SDS011;42245;42.058;24.700;2023-07-31T07:24:54;25.20;;;12.18;;
56343;SDS011;42245;42.058;24.700;2023-07-31T07:27:19;17.05;;;12.15;;
56343;SDS011;42245;42.058;24.700;2023-07-31T07:29:45;52.33;;;14.07;;
56343;SDS011;42245;42.058;24.700;2023-07-31T07:32:11;121.00;;;17.23;;
56343;SDS011;42245;42.058;24.700;2023-07-31T07:34:37;56.58;;;15.80;;
56343;SDS011;42245;42.058;24.700;2023-07-31T07:37:02;26.40;;;12.93;;
56343;SDS011;42245;42.058;24.700;2023-07-31T07:39:28;16.25;;;12.85;;
56343;SDS011;42245;42.058;24.700;2023-07-31T07:41:53;40.78;;;15.52;;
56343;SDS011;42245;42.058;24.700;2023-07-31T07:44:19;31.38;;;15.00;;
56343;SDS011;42245;42.058;24.700;2023-07-31T07:46:44;24.70;;;13.80;;
56343;SDS011;42245;42.058;24.700;2023-07-31T07:49:10;40.42;;;31.35;;
56343;SDS011;42245;42.058;24.700;2023-07-31T07:51:35;16.42;;;14.50;;
56343;SDS011;42245;42.058;24.700;2023-07-31T07:54:01;22.55;;;16.60;;
56343;SDS011;42245;42.058;24.700;2023-07-31T07:56:26;30.92;;;15.85;;
56343;SDS011;42245;42.058;24.700;2023-07-31T07:58:52;16.50;;;14.80;;
56343;SDS011;42245;42.058;24.700;2023-07-31T08:01:18;37.33;;;17.65;;
56343;SDS011;42245;42.058;24.700;2023-07-31T08:03:44;18.60;;;16.38;;
56343;SDS011;42245;42.058;24.700;2023-07-31T08:06:09;31.95;;;17.25;;
56343;SDS011;42245;42.058;24.700;2023-07-31T08:08:35;194.50;;;24.73;;
56343;SDS011;42245;42.058;24.700;2023-07-31T08:11:01;29.60;;;17.63;;
56343;SDS011;42245;42.058;24.700;2023-07-31T08:13:26;19.33;;;17.25;;
56343;SDS011;42245;42.058;24.700;2023-07-31T08:15:52;19.48;;;17.17;;
56343;SDS011;42245;42.058;24.700;2023-07-31T08:18:17;27.08;;;18.70;;
56343;SDS011;42245;42.058;24.700;2023-07-31T08:20:43;20.67;;;17.40;;
56343;SDS011;42245;42.058;24.700;2023-07-31T08:23:09;19.77;;;17.25;;
56343;SDS011;42245;42.058;24.700;2023-07-31T08:25:35;23.58;;;19.80;;
56343;SDS011;42245;42.058;24.700;2023-07-31T08:28:01;69.18;;;60.22;;
56343;SDS011;42245;42.058;24.700;2023-07-31T08:30:27;18.02;;;15.45;;
56343;SDS011;42245;42.058;24.700;2023-07-31T08:32:52;16.48;;;14.65;;
56343;SDS011;42245;42.058;24.700;2023-07-31T08:35:18;17.52;;;15.27;;
56343;SDS011;42245;42.058;24.700;2023-07-31T08:37:43;17.88;;;15.98;;
56343;SDS011;42245;42.058;24.700;2023-07-31T08:40:09;25.40;;;22.23;;
56343;SDS011;42245;42.058;24.700;2023-07-31T08:42:42;83.55;;;24.55;;
56343;SDS011;42245;42.058;24.700;2023-07-31T08:45:15;18.95;;;16.95;;
56343;SDS011;42245;42.058;24.700;2023-07-31T08:47:45;25.13;;;17.98;;
56343;SDS011;42245;42.058;24.700;2023-07-31T08:50:15;17.67;;;15.98;;
56343;SDS011;42245;42.058;24.700;2023-07-31T08:52:42;18.83;;;16.40;;
56343;SDS011;42245;42.058;24.700;2023-07-31T08:55:08;18.42;;;15.63;;
56343;SDS011;42245;42.058;24.700;2023-07-31T08:57:34;23.52;;;15.85;;
56343;SDS011;42245;42.058;24.700;2023-07-31T09:00:02;18.38;;;15.90;;
56343;SDS011;42245;42.058;24.700;2023-07-31T09:02:35;18.20;;;16.13;;
56343;SDS011;42245;42.058;24.700;2023-07-31T09:05:05;17.70;;;15.77;;
56343;SDS011;42245;42.058;24.700;2023-07-31T09:07:31;18.75;;;16.15;;
56343;SDS011;42245;42.058;24.700;2023-07-31T09:10:01;19.55;;;17.38;;
56343;SDS011;42245;42.058;24.700;2023-07-31T09:12:28;21.33;;;16.60;;
56343;SDS011;42245;42.058;24.700;2023-07-31T09:14:53;18.85;;;16.70;;
56343;SDS011;42245;42.058;24.700;2023-07-31T09:17:28;19.73;;;16.83;;
56343;SDS011;42245;42.058;24.700;2023-07-31T09:19:56;22.48;;;17.02;;
56343;SDS011;42245;42.058;24.700;2023-07-31T09:22:31;20.10;;;17.98;;
56343;SDS011;42245;42.058;24.700;2023-07-31T09:25:03;21.17;;;18.13;;
56343;SDS011;42245;42.058;24.700;2023-07-31T09:27:46;20.70;;;18.60;;
56343;SDS011;42245;42.058;24.700;2023-07-31T09:30:25;25.02;;;17.52;;
56343;SDS011;42245;42.058;24.700;2023-07-31T09:32:51;21.48;;;15.63;;
56343;SDS011;42245;42.058;24.700;2023-07-31T09:35:21;17.20;;;15.43;;
56343;SDS011;42245;42.058;24.700;2023-07-31T09:37:57;18.17;;;16.27;;
56343;SDS011;42245;42.058;24.700;2023-07-31T09:40:30;18.90;;;16.88;;
56343;SDS011;42245;42.058;24.700;2023-07-31T09:43:03;27.42;;;20.05;;
56343;SDS011;42245;42.058;24.700;2023-07-31T09:45:30;18.13;;;16.23;;
56343;SDS011;42245;42.058;24.700;2023-07-31T09:47:58;15.90;;;14.23;;
56343;SDS011;42245;42.058;24.700;2023-07-31T09:50:24;63.28;;;21.95;;
56343;SDS011;42245;42.058;24.700;2023-07-31T09:52:50;48.85;;;18.25;;
56343;SDS011;42245;42.058;24.700;2023-07-31T09:55:17;155.23;;;25.70;;
56343;SDS011;42245;42.058;24.700;2023-07-31T09:57:44;14.98;;;12.75;;
56343;SDS011;42245;42.058;24.700;2023-07-31T10:00:12;20.33;;;13.30;;
56343;SDS011;42245;42.058;24.700;2023-07-31T10:02:38;13.50;;;11.32;;
56343;SDS011;42245;42.058;24.700;2023-07-31T10:05:05;12.55;;;11.23;;
56343;SDS011;42245;42.058;24.700;2023-07-31T10:07:34;83.03;;;17.33;;
56343;SDS011;42245;42.058;24.700;2023-07-31T10:10:02;22.90;;;11.70;;
56343;SDS011;42245;42.058;24.700;2023-07-31T10:12:29;24.88;;;11.55;;
56343;SDS011;42245;42.058;24.700;2023-07-31T10:14:57;69.30;;;13.63;;
56343;SDS011;42245;42.058;24.700;2023-07-31T10:17:25;45.75;;;12.25;;
56343;SDS011;42245;42.058;24.700;2023-07-31T10:19:51;9.95;;;8.85;;
56343;SDS011;42245;42.058;24.700;2023-07-31T10:22:16;79.43;;;13.30;;
56343;SDS011;42245;42.058;24.700;2023-07-31T10:24:43;28.42;;;10.25;;
56343;SDS011;42245;42.058;24.700;2023-07-31T10:27:10;36.13;;;10.35;;
56343;SDS011;42245;42.058;24.700;2023-07-31T10:29:36;24.23;;;9.85;;
56343;SDS011;42245;42.058;24.700;2023-07-31T10:32:03;80.25;;;18.48;;
56343;SDS011;42245;42.058;24.700;2023-07-31T10:34:33;11.98;;;9.50;;
56343;SDS011;42245;42.058;24.700;2023-07-31T10:40:11;14.93;;;9.50;;
56343;SDS011;42245;42.058;24.700;2023-07-31T10:42:46;12.70;;;7.45;;
56343;SDS011;42245;42.058;24.700;2023-07-31T10:45:35;8.52;;;7.57;;
56343;SDS011;42245;42.058;24.700;2023-07-31T10:50:28;21.40;;;9.30;;
56343;SDS011;42245;42.058;24.700;2023-07-31T10:52:55;10.77;;;7.25;;
56343;SDS011;42245;42.058;24.700;2023-07-31T10:55:26;41.47;;;12.07;;
56343;SDS011;42245;42.058;24.700;2023-07-31T10:58:13;7.88;;;6.85;;
56343;SDS011;42245;42.058;24.700;2023-07-31T11:00:43;8.60;;;6.85;;
56343;SDS011;42245;42.058;24.700;2023-07-31T11:03:16;15.43;;;8.38;;
56343;SDS011;42245;42.058;24.700;2023-07-31T11:08:33;8.75;;;6.97;;
56343;SDS011;42245;42.058;24.700;2023-07-31T11:13:31;10.18;;;6.38;;
56343;SDS011;42245;42.058;24.700;2023-07-31T11:16:07;17.17;;;7.85;;
56343;SDS011;42245;42.058;24.700;2023-07-31T11:18:34;13.35;;;7.18;;
56343;SDS011;42245;42.058;24.700;2023-07-31T11:21:00;22.83;;;7.95;;
56343;SDS011;42245;42.058;24.700;2023-07-31T11:23:25;19.20;;;8.18;;
56343;SDS011;42245;42.058;24.700;2023-07-31T11:25:51;13.00;;;6.82;;
56343;SDS011;42245;42.058;24.700;2023-07-31T11:28:17;14.63;;;6.53;;
56343;SDS011;42245;42.058;24.700;2023-07-31T11:30:44;8.82;;;6.28;;
56343;SDS011;42245;42.058;24.700;2023-07-31T11:33:12;8.48;;;6.10;;
56343;SDS011;42245;42.058;24.700;2023-07-31T11:35:43;15.52;;;6.90;;
56343;SDS011;42245;42.058;24.700;2023-07-31T11:38:27;14.27;;;6.50;;
56343;SDS011;42245;42.058;24.700;2023-07-31T11:40:54;14.38;;;8.35;;
56343;SDS011;42245;42.058;24.700;2023-07-31T11:43:20;9.07;;;7.88;;
56343;SDS011;42245;42.058;24.700;2023-07-31T11:45:50;11.55;;;8.90;;
56343;SDS011;42245;42.058;24.700;2023-07-31T11:50:45;15.27;;;9.65;;
56343;SDS011;42245;42.058;24.700;2023-07-31T11:53:11;15.10;;;9.68;;
56343;SDS011;42245;42.058;24.700;2023-07-31T11:55:38;18.33;;;9.93;;
56343;SDS011;42245;42.058;24.700;2023-07-31T11:58:03;11.48;;;8.93;;
56343;SDS011;42245;42.058;24.700;2023-07-31T12:00:29;12.75;;;9.70;;
56343;SDS011;42245;42.058;24.700;2023-07-31T12:02:54;39.78;;;12.90;;
56343;SDS011;42245;42.058;24.700;2023-07-31T12:05:20;28.27;;;11.05;;
56343;SDS011;42245;42.058;24.700;2023-07-31T12:07:51;13.13;;;10.05;;
56343;SDS011;42245;42.058;24.700;2023-07-31T12:10:27;13.85;;;10.23;;
56343;SDS011;42245;42.058;24.700;2023-07-31T12:12:59;11.85;;;10.75;;
56343;SDS011;42245;42.058;24.700;2023-07-31T12:15:35;70.38;;;12.82;;
56343;SDS011;42245;42.058;24.700;2023-07-31T12:18:07;11.43;;;8.20;;
56343;SDS011;42245;42.058;24.700;2023-07-31T12:20:34;9.35;;;8.45;;
56343;SDS011;42245;42.058;24.700;2023-07-31T12:22:59;9.43;;;8.52;;
56343;SDS011;42245;42.058;24.700;2023-07-31T12:25:32;14.95;;;9.50;;
56343;SDS011;42245;42.058;24.700;2023-07-31T12:28:03;11.07;;;9.73;;
56343;SDS011;42245;42.058;24.700;2023-07-31T12:30:33;10.77;;;9.68;;
56343;SDS011;42245;42.058;24.700;2023-07-31T12:35:35;24.60;;;10.98;;
56343;SDS011;42245;42.058;24.700;2023-07-31T12:38:02;13.35;;;9.50;;
56343;SDS011;42245;42.058;24.700;2023-07-31T12:40:27;9.73;;;8.80;;
56343;SDS011;42245;42.058;24.700;2023-07-31T12:42:53;9.43;;;8.52;;
56343;SDS011;42245;42.058;24.700;2023-07-31T12:45:18;12.40;;;9.10;;
56343;SDS011;42245;42.058;24.700;2023-07-31T12:47:46;15.95;;;8.98;;
56343;SDS011;42245;42.058;24.700;2023-07-31T12:50:11;9.95;;;8.40;;
56343;SDS011;42245;42.058;24.700;2023-07-31T12:52:37;9.98;;;8.98;;
56343;SDS011;42245;42.058;24.700;2023-07-31T12:55:02;11.10;;;8.45;;
56343;SDS011;42245;42.058;24.700;2023-07-31T12:57:29;9.48;;;8.55;;
56343;SDS011;42245;42.058;24.700;2023-07-31T12:59:55;8.88;;;8.07;;
56343;SDS011;42245;42.058;24.700;2023-07-31T13:02:21;8.82;;;7.93;;
56343;SDS011;42245;42.058;24.700;2023-07-31T13:04:46;9.50;;;8.23;;
56343;SDS011;42245;42.058;24.700;2023-07-31T13:07:11;9.60;;;8.38;;
56343;SDS011;42245;42.058;24.700;2023-07-31T13:09:37;10.20;;;9.20;;
56343;SDS011;42245;42.058;24.700;2023-07-31T13:12:02;9.48;;;8.57;;
56343;SDS011;42245;42.058;24.700;2023-07-31T13:14:28;10.25;;;9.20;;
56343;SDS011;42245;42.058;24.700;2023-07-31T13:16:54;10.20;;;8.70;;
56343;SDS011;42245;42.058;24.700;2023-07-31T13:19:19;9.30;;;8.40;;
56343;SDS011;42245;42.058;24.700;2023-07-31T13:21:44;11.52;;;8.60;;
56343;SDS011;42245;42.058;24.700;2023-07-31T13:24:10;12.85;;;9.98;;
56343;SDS011;42245;42.058;24.700;2023-07-31T13:26:36;10.25;;;8.18;;
56343;SDS011;42245;42.058;24.700;2023-07-31T13:29:02;10.00;;;9.00;;
56343;SDS011;42245;42.058;24.700;2023-07-31T13:31:27;10.05;;;8.38;;
56343;SDS011;42245;42.058;24.700;2023-07-31T13:33:53;11.30;;;8.63;;
56343;SDS011;42245;42.058;24.700;2023-07-31T13:36:18;9.88;;;8.68;;
56343;SDS011;42245;42.058;24.700;2023-07-31T13:38:44;36.90;;;10.10;;
56343;SDS011;42245;42.058;24.700;2023-07-31T13:41:09;10.77;;;8.65;;
56343;SDS011;42245;42.058;24.700;2023-07-31T13:43:35;10.98;;;8.18;;
56343;SDS011;42245;42.058;24.700;2023-07-31T13:46:01;9.60;;;8.52;;
56343;SDS011;42245;42.058;24.700;2023-07-31T13:48:31;10.75;;;7.85;;
56343;SDS011;42245;42.058;24.700;2023-07-31T13:50:59;9.77;;;8.77;;
56343;SDS011;42245;42.058;24.700;2023-07-31T13:53:25;21.30;;;14.45;;
56343;SDS011;42245;42.058;24.700;2023-07-31T13:55:50;8.77;;;7.80;;
56343;SDS011;42245;42.058;24.700;2023-07-31T13:58:16;16.40;;;8.52;;
56343;SDS011;42245;42.058;24.700;2023-07-31T14:00:42;8.18;;;7.35;;
56343;SDS011;42245;42.058;24.700;2023-07-31T14:03:07;9.13;;;8.20;;
56343;SDS011;42245;42.058;24.700;2023-07-31T14:05:33;14.48;;;8.13;;
56343;SDS011;42245;42.058;24.700;2023-07-31T14:07:58;8.38;;;7.45;;
56343;SDS011;42245;42.058;24.700;2023-07-31T14:10:24;8.65;;;7.75;;
56343;SDS011;42245;42.058;24.700;2023-07-31T14:12:49;9.15;;;7.35;;
56343;SDS011;42245;42.058;24.700;2023-07-31T14:15:15;8.32;;;7.53;;
56343;SDS011;42245;42.058;24.700;2023-07-31T14:17:40;8.88;;;7.97;;
56343;SDS011;42245;42.058;24.700;2023-07-31T14:20:06;20.13;;;8.73;;
56343;SDS011;42245;42.058;24.700;2023-07-31T14:22:32;8.02;;;7.22;;
56343;SDS011;42245;42.058;24.700;2023-07-31T14:24:59;8.70;;;6.88;;
56343;SDS011;42245;42.058;24.700;2023-07-31T14:27:25;8.27;;;7.03;;
56343;SDS011;42245;42.058;24.700;2023-07-31T14:29:50;8.77;;;6.80;;
56343;SDS011;42245;42.058;24.700;2023-07-31T14:32:16;7.65;;;6.93;;
56343;SDS011;42245;42.058;24.700;2023-07-31T14:34:41;8.23;;;7.43;;
56343;SDS011;42245;42.058;24.700;2023-07-31T14:37:07;8.45;;;7.13;;
56343;SDS011;42245;42.058;24.700;2023-07-31T14:39:32;10.10;;;7.18;;
56343;SDS011;42245;42.058;24.700;2023-07-31T14:41:58;8.75;;;6.82;;
56343;SDS011;42245;42.058;24.700;2023-07-31T14:44:23;6.80;;;6.10;;
56343;SDS011;42245;42.058;24.700;2023-07-31T14:46:49;7.28;;;6.40;;
56343;SDS011;42245;42.058;24.700;2023-07-31T14:49:14;6.80;;;6.10;;